Tiempo atmosférico en la estación meteorológica de Adeje, Santa Cruz de Tenerife (130 m.)



Fecha
DESCASC
Temp. máxima en grados centígrados (hora)
DESCASC
Temp. mínima en grados centígrados (hora)
DESCASC
Temp. media en grados centígrados
DESCASC
Racha de viento máxima en m/sg (hora)
DESCASC
Velocidad máxima media en intervalos de 10 minutos(hora)
DESCASC
Precipitaciones diarias en mm
DESCASC
Precipitaciones de 00:00 a 06:00 en mm
DESCASC
Precipitaciones de 06:00 a 12:00 en mm
DESCASC
Precipitaciones de 12:00 a 18:00 en mm
DESCASC
Precipitaciones de 18:00 a 24:00 en mm
DESCASC
20-05-2018 21.3 (12:40) 16.5 (06:10) 18.9 5.83 (14:00) 2.78 (19:10) 0 0 0 0 0
19-05-2018 23.1 (16:40) 14.6 (05:40) 18.9 5.83 (16:10) 3.61 (16:30) 0 0 0 0 0
18-05-2018 21.4 (18:50) 16.3 (00:00) 18.8 4.72 (11:30) 2.5 (11:30) 0 0 0 0 0
17-05-2018 23.3 (17:40) 16.4 (00:00) 19.8 6.39 (17:20) 3.06 (14:30) 0 0 0 0 0
16-05-2018 22.3 (17:00) 17.7 (00:00) 20 8.06 (13:50) 3.61 (13:50) 0 0 0 0 0
15-05-2018 23.6 (17:40) 15.2 (00:00) 19.4 6.67 (13:40) 4.17 (13:30) 0 0 0 0 0
14-05-2018 23.6 (16:30) 15.5 (00:00) 19.6 8.61 (17:30) 4.17 (17:30) 0 0 0 0 0
13-05-2018 23.6 (15:10) 16.8 (00:00) 20.2 9.17 (17:30) 4.17 (17:20) 0 0 0 0 0
12-05-2018 24.4 (16:30) 16.2 (00:00) 20.3 6.39 (13:40) 3.61 (17:40) 0 0 0 0 0
11-05-2018 23.3 (14:00) 17.6 (06:20) 20.4 7.22 (16:20) 3.89 (13:20) 0 0 0 0 0
10-05-2018 24 (15:10) 16.5 (00:00) 20.3 6.11 (14:00) 3.33 (16:50) 0 0 0 0 0
09-05-2018 23 (11:50) 17.6 (00:00) 20.3 6.39 (14:20) 3.33 (15:00) 0 0 0 0 0
08-05-2018 23.7 (16:50) 16.5 (00:00) 20.1 6.94 (17:00) 3.61 (16:10) 0 0 0 0 0
07-05-2018 21.1 (11:20) 14.9 (00:00) 18 6.94 (15:50) 3.61 (15:50) 0 0 0 0 0
06-05-2018 21.9 (13:10) 14.2 (00:00) 18 9.17 (12:00) 4.17 (12:00) 0 0 0 0 0
05-05-2018 23 (14:20) 16.3 (00:00) 19.6 7.78 (12:40) 3.61 (14:50) 0 0 0 0 0
04-05-2018 23.6 (15:50) 15.8 (00:00) 19.7 7.78 (15:20) 3.33 (14:10) 0 0 0 0 0
03-05-2018 21.6 (10:40) 15.9 (00:00) 18.8 5 (05:50) 2.5 (18:20) 0 0 0 0 0
02-05-2018 21.9 (17:40) 15.9 (00:00) 18.9 9.44 (19:10) 4.72 (19:10) 0 0 0 0 0
01-05-2018 21.6 (12:50) 14 (07:40) 17.8 6.39 (17:40) 3.89 (17:20) 0 0 0 0 0
30-04-2018 22 (17:40) 14.8 (00:00) 18.4 7.78 (19:00) 3.61 (19:00) 0 0 0 0 0
29-04-2018 23.3 (14:20) 16.5 (00:00) 19.9 7.22 (14:30) 4.17 (15:40) 0 0 0 0 0
28-04-2018 23.8 (14:20) 16 (00:00) 19.9 9.17 (13:20) 4.17 (13:30) 0 0 0 0 0
27-04-2018 22.6 (15:00) 16.6 (00:00) 19.6 7.78 (14:50) 3.89 (13:30) 0 0 0 0 0
26-04-2018 23.4 (15:20) 17.2 (00:00) 20.3 6.67 (15:10) 3.33 (15:00) 0 0 0 0 0
25-04-2018 23.6 (16:00) 15.7 (00:00) 19.7 7.5 (16:00) 3.89 (15:20) 0 0 0 0 0
24-04-2018 22.4 (16:10) 15.9 (00:00) 19.1 5.56 (00:10) 3.33 (17:50) 0 0 0 0 0
23-04-2018 21.5 (14:40) 16.3 (00:00) 18.9 7.5 (17:00) 4.17 (11:50) 0 0 0 0 0
22-04-2018 23.5 (16:30) 14.2 (00:00) 18.8 10.28 (18:40) 3.89 (16:50) 0 0 0 0 0

Gráficas

Temp. máximas Temp. mínimas Temp. medias Precipitaciones Rachas de viento máximas Velocidades máximas media en intervalos de 10 minutos

Datos horarios

Fecha y hora oficial Temperatura (ºC) Velocidad del viento (km/h) Dirección del viento Racha (km/h) Dirección de racha Precipitación (mm) Presión (hPa) Tendencia (hPa) Humedad (%)
2018-05-21 23:00:00 -- -- -- -- -- -- -- -- --
2018-05-21 22:00:00 18.1 3 Nordeste 12 Este 0 -- -- 66
2018-05-21 21:00:00 18.7 4 Este 16 Nordeste 0 -- -- 63
2018-05-21 20:00:00 20.4 8 Oeste 16 Sur 0 -- -- 58
2018-05-21 19:00:00 19.4 4 Oeste 10 Sur 0 -- -- 61
2018-05-21 18:00:00 19.9 4 Noroeste 17 Sudoeste 0 -- -- 60
2018-05-21 17:00:00 20.4 8 Oeste 16 Sudoeste 0 -- -- 59
2018-05-21 16:00:00 20.3 6 Sudoeste 15 Sudoeste 0 -- -- 58
2018-05-21 15:00:00 19.4 6 Sudoeste 15 Sudoeste 0 -- -- 61
2018-05-21 14:00:00 19.4 4 Sudoeste 15 Oeste 0 -- -- 62
2018-05-21 13:00:00 19.2 4 Sudoeste 14 Sudoeste 0 -- -- 63
2018-05-21 12:00:00 19.6 7 Sudoeste 15 Oeste 0 -- -- 61
2018-05-21 11:00:00 21.2 8 Sudoeste 13 Oeste 0 -- -- 55
2018-05-21 10:00:00 20.5 7 Oeste 12 Oeste 0 -- -- 57
2018-05-21 09:00:00 18.4 0 Calma 4 Oeste 0 -- -- 64
2018-05-21 08:00:00 17.4 0 Calma 4 Sur 0 -- -- 66
2018-05-21 07:00:00 17.4 0 Calma 6 Nordeste 0 -- -- 66
2018-05-21 06:00:00 17.6 3 Nordeste 8 Este 0 -- -- 65
2018-05-21 05:00:00 17.6 0 Calma 6 Sur 0 -- -- 66
2018-05-21 04:00:00 17.4 0 Calma 4 Oeste 0 -- -- 67
2018-05-21 03:00:00 17.6 2 Norte 5 Nordeste 0 -- -- 66
2018-05-21 02:00:00 17.7 0 Calma 8 Oeste 0 -- -- 66
2018-05-21 01:00:00 17.8 0 Calma 7 Oeste 0 -- -- 65
2018-05-21 00:00:00 17.9 4 Sudoeste 12 Sudoeste 0 -- -- 64
2018-05-20 23:00:00 17.9 6 Sudoeste 10 Sudoeste 0 -- -- 65
2018-05-20 22:00:00 18 3 Oeste 7 Oeste 0 -- -- 66
2018-05-20 21:00:00 18.3 3 Oeste 12 Noroeste 0 -- -- 65
2018-05-20 20:00:00 19.4 4 Noroeste 18 Sudoeste 0 -- -- 58
2018-05-20 19:00:00 20 7 Sudoeste 16 Sudoeste 0 -- -- 55
2018-05-20 18:00:00 20.5 7 Sudoeste 12 Sudoeste 0 -- -- 56
2018-05-20 17:00:00 20.1 6 Sudoeste 12 Sudoeste 0 -- -- 55
2018-05-20 16:00:00 20.2 4 Oeste 13 Sudoeste 0 -- -- 56
2018-05-20 15:00:00 19.6 4 Oeste 15 Sudoeste 0 -- -- 58
2018-05-20 14:00:00 20.4 9 Oeste 21 Sudoeste 0 -- -- 55
2018-05-20 13:00:00 21 7 Oeste 15 Oeste 0 -- -- 54
2018-05-20 12:00:00 20.9 7 Oeste 17 Sudoeste 0 -- -- 51
2018-05-20 11:00:00 21.1 6 Noroeste 13 Sudoeste 0 -- -- 48
2018-05-20 10:00:00 19.2 4 Norte 6 Sur 0 -- -- 51
2018-05-20 09:00:00 17.9 0 Calma 3 Nordeste 0 -- -- 61
2018-05-20 08:00:00 17.1 3 Nordeste 7 Nordeste 0 -- -- 59
2018-05-20 07:00:00 16.5 5 Este 10 Este 0 -- -- 63
2018-05-20 06:00:00 16.6 5 Este 8 Este 0 -- -- 64
2018-05-20 05:00:00 17.4 2 Este 4 Sudeste 0 -- -- 64
2018-05-20 04:00:00 17.5 0 Calma 9 Nordeste 0 -- -- 65
2018-05-20 03:00:00 17.6 3 Sudeste 7 Norte 0 -- -- 65
2018-05-20 02:00:00 17.8 3 Este 12 Este 0 -- -- 65
2018-05-20 01:00:00 18.1 0 Calma 6 Noroeste 0 -- -- 64
2018-05-20 00:00:00 18.2 3 Norte 8 Oeste 0 -- -- 64
2018-05-19 23:00:00 18.3 2 Noroeste 9 Sudoeste 0 -- -- 65
2018-05-19 22:00:00 18.4 3 Oeste 13 Sudoeste 0 -- -- 65
2018-05-19 21:00:00 18.9 9 Sudoeste 16 Oeste 0 -- -- 64
2018-05-19 20:00:00 20.2 5 Oeste 21 Sudoeste 0 -- -- 60
2018-05-19 19:00:00 21.9 11 Sudoeste 21 Sudoeste 0 -- -- 57
2018-05-19 18:00:00 20.8 8 Sudoeste 21 Sudoeste 0 -- -- 62
2018-05-19 17:00:00 22.1 8 Oeste 21 Oeste 0 -- -- 58
2018-05-19 16:00:00 21.4 8 Oeste 18 Sudoeste 0 -- -- 60
2018-05-19 15:00:00 20.3 9 Sudoeste 17 Sudoeste 0 -- -- 63
2018-05-19 14:00:00 21 8 Sudoeste 19 Oeste 0 -- -- 56
2018-05-19 13:00:00 21.2 8 Oeste 17 Sudoeste 0 -- -- 54
2018-05-19 12:00:00 20.9 8 Sudoeste 17 Sudoeste 0 -- -- 55
2018-05-19 11:00:00 20 8 Sudoeste 14 Sudoeste 0 -- -- 57
2018-05-19 10:00:00 20.5 4 Nordeste 10 Nordeste 0 -- -- 56
2018-05-19 09:00:00 17.3 0 Calma 9 Nordeste 0 -- -- 68
2018-05-19 08:00:00 16.3 5 Este 10 Este 0 -- -- 67
2018-05-19 07:00:00 16 4 Nordeste 6 Norte 0 -- -- 75
2018-05-19 06:00:00 14.9 4 Nordeste 5 Nordeste 0 -- -- 80
2018-05-19 05:00:00 14.7 0 Calma 10 Nordeste 0 -- -- 76
2018-05-19 04:00:00 15.6 8 Nordeste 11 Nordeste 0 -- -- 69
2018-05-19 03:00:00 15.8 6 Este 9 Este 0 -- -- 71
2018-05-19 02:00:00 15.8 0 Calma 9 Nordeste 0 -- -- 73
2018-05-19 01:00:00 16.1 4 Norte 5 Norte 0 -- -- 75
2018-05-19 00:00:00 16.3 0 Calma 2 Sudoeste 0 -- -- 72
2018-05-18 23:00:00 17 0 Calma 6 Oeste 0 -- -- 71
2018-05-18 22:00:00 17.3 0 Calma 6 Oeste 0 -- -- 67
2018-05-18 21:00:00 18.5 3 Sudoeste 12 Sudoeste 0 -- -- 62
2018-05-18 20:00:00 19.5 5 Oeste 12 Oeste 0 -- -- 60
2018-05-18 19:00:00 21.1 7 Noroeste 15 Sudoeste 0 -- -- 55
2018-05-18 18:00:00 21 6 Oeste 17 Oeste 0 -- -- 54
2018-05-18 17:00:00 20.7 7 Oeste 14 Sudoeste 0 -- -- 54
2018-05-18 16:00:00 20.1 4 Sudoeste 12 Oeste 0 -- -- 56
2018-05-18 15:00:00 20 6 Oeste 14 Sudoeste 0 -- -- 58
2018-05-18 14:00:00 20.1 6 Oeste 17 Sudoeste 0 -- -- 58
2018-05-18 13:00:00 20 8 Sudoeste 16 Sudoeste 0 -- -- 57
2018-05-18 12:00:00 19.8 5 Oeste 17 Oeste 0 -- -- 57
2018-05-18 11:00:00 19.3 5 Oeste 15 Oeste 0 -- -- 61
2018-05-18 10:00:00 18.9 4 Sudoeste 10 Sur 0 -- -- 61
2018-05-18 09:00:00 18.2 2 Sur 6 Sudoeste 0 -- -- 62
2018-05-18 08:00:00 17.6 0 Calma 5 Sudeste 0 -- -- 65
2018-05-18 07:00:00 17.6 3 Sudoeste 9 Oeste 0 -- -- 67
2018-05-18 06:00:00 17.7 2 Nordeste 7 Norte 0 -- -- 69
2018-05-18 05:00:00 17.6 0 Calma 5 Oeste 0 -- -- 68
2018-05-18 04:00:00 17.6 3 Sudoeste 5 Noroeste 0 -- -- 70
2018-05-18 03:00:00 17.8 2 Norte 6 Oeste 0 -- -- 71
2018-05-18 02:00:00 17.8 0 Calma 6 Sudoeste 0 -- -- 68
2018-05-18 01:00:00 18 4 Oeste 8 Sudoeste 0 -- -- 67
2018-05-18 00:00:00 18.1 2 Oeste 5 Oeste 0 -- -- 68
2018-05-17 23:00:00 18.3 2 Sudoeste 10 Noroeste 0 -- -- 68
2018-05-17 22:00:00 18.5 4 Noroeste 13 Sudoeste 0 -- -- 67
2018-05-17 21:00:00 19.1 5 Oeste 15 Sudoeste 0 -- -- 64
2018-05-17 20:00:00 19.7 8 Sudoeste 17 Sudoeste 0 -- -- 62
2018-05-17 19:00:00 20.5 4 Oeste 21 Sudoeste 0 -- -- 59
2018-05-17 18:00:00 22.5 9 Sudoeste 23 Sudoeste 0 -- -- 53
2018-05-17 17:00:00 21.8 9 Oeste 22 Sudoeste 0 -- -- 55
2018-05-17 16:00:00 21.3 7 Sudoeste 20 Sudoeste 0 -- -- 56
2018-05-17 15:00:00 21.1 9 Sudoeste 22 Sudoeste 0 -- -- 56
2018-05-17 14:00:00 21.5 9 Sudoeste 19 Sudoeste 0 -- -- 56
2018-05-17 13:00:00 20.3 6 Sudoeste 18 Sudoeste 0 -- -- 60
2018-05-17 12:00:00 20.4 6 Sudoeste 15 Sudoeste 0 -- -- 58
2018-05-17 11:00:00 19.8 7 Sudoeste 14 Oeste 0 -- -- 60
2018-05-17 10:00:00 19.5 5 Oeste 11 Sudoeste 0 -- -- 62
2018-05-17 09:00:00 18.1 4 Norte 9 Norte 0 -- -- 65
2018-05-17 08:00:00 16.5 3 Norte 5 Noroeste 0 -- -- 72
2018-05-17 07:00:00 16.6 2 Norte 5 Norte 0 -- -- 71
2018-05-17 06:00:00 16.6 0 Calma 3 Nordeste 0 -- -- 73
2018-05-17 05:00:00 17.2 0 Calma 5 Sudoeste 0 -- -- 72
2018-05-17 04:00:00 17.4 2 Sur 4 Sur 0 -- -- 72
2018-05-17 03:00:00 17.2 0 Calma 6 Sudoeste 0 -- -- 74
2018-05-17 02:00:00 16.9 2 Norte 6 Norte 0 -- -- 71
2018-05-17 01:00:00 17.2 3 Norte 4 Nordeste 0 -- -- 69
2018-05-17 00:00:00 18.1 2 Nordeste 12 Sudoeste 0 -- -- 69
2018-05-16 23:00:00 18.5 7 Sudoeste 15 Sudoeste 0 -- -- 69
2018-05-16 22:00:00 18.8 7 Sudoeste 14 Oeste 0 -- -- 65
2018-05-16 21:00:00 19.1 5 Sudoeste 15 Oeste 0 -- -- 64
2018-05-16 20:00:00 20.1 6 Oeste 19 Sudoeste 0 -- -- 58
2018-05-16 19:00:00 20.8 10 Oeste 25 Sudoeste 0 -- -- 57
2018-05-16 18:00:00 21.2 10 Oeste 22 Sudoeste 0 -- -- 57
2018-05-16 17:00:00 22.3 9 Sudoeste 19 Oeste 0 -- -- 56
2018-05-16 16:00:00 20.9 9 Sudoeste 17 Oeste 0 -- -- 58
2018-05-16 15:00:00 21.8 10 Sudoeste 21 Sudoeste 0 -- -- 54
2018-05-16 14:00:00 21.3 11 Oeste 29 Sudoeste 0 -- -- 58
2018-05-16 13:00:00 20.7 6 Sudoeste 23 Sudoeste 0 -- -- 61
2018-05-16 12:00:00 20.2 13 Sudoeste 22 Sudoeste 0 -- -- 65
2018-05-16 11:00:00 20.1 8 Sudoeste 14 Sudoeste 0 -- -- 64
2018-05-16 10:00:00 19.2 3 Sudoeste 11 Norte 0 -- -- 67
2018-05-16 09:00:00 18.4 4 Oeste 9 Oeste 0 -- -- 70
2018-05-16 08:00:00 17.9 6 Sudoeste 12 Sudoeste 0 -- -- 73
2018-05-16 07:00:00 17.7 4 Sudoeste 9 Sudoeste 0 -- -- 74
2018-05-16 06:00:00 17.8 4 Oeste 10 Nordeste 0 -- -- 71
2018-05-16 05:00:00 18.1 4 Norte 11 Noroeste 0 -- -- 68
2018-05-16 04:00:00 18.2 3 Sur 11 Sur 0 -- -- 69
2018-05-16 03:00:00 18.3 0 Calma 8 Sudoeste 0 -- -- 70
2018-05-16 02:00:00 18.4 3 Sudoeste 10 Oeste 0 -- -- 69
2018-05-16 01:00:00 18.7 5 Oeste 13 Sudoeste 0 -- -- 68
2018-05-16 00:00:00 18.8 7 Sudoeste 12 Oeste 0 -- -- 69
2018-05-15 23:00:00 19 5 Sudoeste 12 Oeste 0 -- -- 68
2018-05-15 22:00:00 19 5 Sudoeste 12 Oeste 0 -- -- 69
2018-05-15 21:00:00 19.3 6 Sudoeste 13 Sudoeste 0 -- -- 68
2018-05-15 20:00:00 21.6 6 Oeste 17 Sudoeste 0 -- -- 60
2018-05-15 19:00:00 22.6 8 Oeste 20 Oeste 0 -- -- 55
2018-05-15 18:00:00 23.4 9 Oeste 19 Oeste 0 -- -- 52
2018-05-15 17:00:00 23.2 12 Sudoeste 22 Sudoeste 0 -- -- 51
2018-05-15 16:00:00 23.2 10 Sudoeste 22 Sudoeste 0 -- -- 51
2018-05-15 15:00:00 23.1 14 Sudoeste 24 Sudoeste 0 -- -- 52
2018-05-15 14:00:00 22.6 13 Sudoeste 24 Oeste 0 -- -- 53
2018-05-15 13:00:00 22.1 12 Sudoeste 22 Oeste 0 -- -- 56
2018-05-15 12:00:00 22.1 9 Oeste 17 Oeste 0 -- -- 52
2018-05-15 11:00:00 20.9 7 Oeste 16 Sudoeste 0 -- -- 58
2018-05-15 10:00:00 20 4 Sudoeste 10 Oeste 0 -- -- 61
2018-05-15 09:00:00 17.2 2 Nordeste 4 Este 0 -- -- 68
2018-05-15 08:00:00 15.4 4 Este 6 Nordeste 0 -- -- 71
2018-05-15 07:00:00 15.8 5 Nordeste 8 Este 0 -- -- 72
2018-05-15 06:00:00 16.2 6 Este 16 Nordeste 0 -- -- 71
2018-05-15 05:00:00 16.1 6 Nordeste 10 Este 0 -- -- 76
2018-05-15 04:00:00 16 2 Este 5 Nordeste 0 -- -- 76
2018-05-15 03:00:00 15.7 0 Calma 3 Nordeste 0 -- -- 80
2018-05-15 02:00:00 16.1 0 Calma 7 Norte 0 -- -- 78
2018-05-15 01:00:00 16.5 0 Calma 3 Noroeste 0 -- -- 76
2018-05-15 00:00:00 16.9 0 Calma 3 Norte 0 -- -- 74
2018-05-14 23:00:00 17.3 0 Calma 8 Noroeste 0 -- -- 72
2018-05-14 22:00:00 17.9 4 Noroeste 12 Noroeste 0 -- -- 71
2018-05-14 21:00:00 18.6 2 Noroeste 15 Oeste 0 -- -- 66
2018-05-14 20:00:00 20.8 10 Oeste 18 Oeste 0 -- -- 60
2018-05-14 19:00:00 22.4 6 Noroeste 17 Oeste 0 -- -- 55
2018-05-14 18:00:00 22.1 11 Sudoeste 31 Sudoeste 0 -- -- 55
2018-05-14 17:00:00 22.7 11 Oeste 24 Oeste 0 -- -- 54
2018-05-14 16:00:00 23.2 10 Sudoeste 22 Sudoeste 0 -- -- 49
2018-05-14 15:00:00 22.4 10 Sudoeste 19 Sudoeste 0 -- -- 53
2018-05-14 14:00:00 22.2 11 Sudoeste 18 Sudoeste 0 -- -- 53
2018-05-14 13:00:00 21.4 8 Oeste 19 Sudoeste 0 -- -- 56
2018-05-14 12:00:00 21.2 10 Oeste 16 Sudoeste 0 -- -- 55
2018-05-14 11:00:00 20.6 8 Oeste 17 Oeste 0 -- -- 58
2018-05-14 10:00:00 19.4 4 Oeste 12 Sudoeste 0 -- -- 61
2018-05-14 09:00:00 18.8 5 Noroeste 14 Oeste 0 -- -- 63
2018-05-14 08:00:00 16.7 0 Calma 6 Oeste 0 -- -- 71
2018-05-14 07:00:00 16.4 3 Sudoeste 6 Norte 0 -- -- 72
2018-05-14 06:00:00 16.9 4 Norte 9 Nordeste 0 -- -- 71
2018-05-14 05:00:00 16.6 3 Norte 8 Norte 0 -- -- 73
2018-05-14 04:00:00 16.3 2 Norte 4 Noroeste 0 -- -- 74
2018-05-14 03:00:00 15.5 0 Calma 5 Norte 0 -- -- 74
2018-05-14 02:00:00 16 0 Calma 8 Noroeste 0 -- -- 74
2018-05-14 01:00:00 16.4 3 Nordeste 4 Nordeste 0 -- -- 72
2018-05-14 00:00:00 16.9 0 Calma 7 Sudoeste 0 -- -- 71
2018-05-11 19:00:00 -- -- -- -- -- -- -- -- --
2018-05-11 18:00:00 23 10 Oeste 18 Oeste 0 -- -- 52
2018-05-11 17:00:00 21.9 11 Sudoeste 26 Oeste 0 -- -- 55
2018-05-11 16:00:00 22.6 8 Sudoeste 21 Sudoeste 0 -- -- 52
2018-05-11 15:00:00 22.8 12 Sudoeste 25 Sudoeste 0 -- -- 52
2018-05-11 14:00:00 23.3 11 Oeste 23 Sudoeste 0 -- -- 50
2018-05-11 13:00:00 22.2 12 Oeste 22 Sudoeste 0 -- -- 53
2018-05-11 12:00:00 21.3 12 Sudoeste 20 Sudoeste 0 -- -- 54
2018-05-11 11:00:00 20.8 8 Sudoeste 17 Sudoeste 0 -- -- 56
2018-05-11 10:00:00 18.8 6 Oeste 12 Oeste 0 -- -- 62
2018-05-11 09:00:00 18.2 4 Oeste 8 Oeste 0 -- -- 65
2018-05-11 08:00:00 17.6 3 Sur 7 Sur 0 -- -- 65
2018-05-11 07:00:00 17.6 3 Sudeste 9 Sudeste 0 -- -- 66
2018-05-11 06:00:00 17.7 0 Calma 5 Sudoeste 0 -- -- 66
2018-05-11 05:00:00 17.8 2 Noroeste 6 Sudeste 0 -- -- 68
2018-05-11 04:00:00 17.9 3 Sudeste 7 Sudeste 0 -- -- 69
2018-05-11 03:00:00 17.9 2 Sur 12 Este 0 -- -- 70
2018-05-11 02:00:00 18.2 3 Norte 11 Oeste 0 -- -- 69
2018-05-11 01:00:00 18.5 3 Sudoeste 10 Oeste 0 -- -- 71
2018-05-11 00:00:00 18.7 3 Oeste 10 Oeste 0 -- -- 69
2018-05-10 23:00:00 19 2 Oeste 11 Oeste 0 -- -- 69
2018-05-10 22:00:00 19.3 3 Oeste 9 Oeste 0 -- -- 67
2018-05-10 21:00:00 19.7 4 Oeste 11 Nordeste 0 -- -- 64
2018-05-10 20:00:00 20 6 Norte 11 Sudoeste 0 -- -- 62
2018-05-10 19:00:00 20.7 7 Oeste 19 Sudoeste 0 -- -- 60
2018-05-10 18:00:00 23.4 10 Sudoeste 20 Oeste 0 -- -- 53
2018-05-10 17:00:00 23.9 11 Sudoeste 22 Oeste 0 -- -- 52
2018-05-10 16:00:00 23.6 11 Oeste 22 Oeste 0 -- -- 51
2018-05-10 15:00:00 23.6 8 Oeste 21 Sudoeste 0 -- -- 48
2018-05-10 14:00:00 23.2 12 Oeste 22 Sudoeste 0 -- -- 51
2018-05-10 13:00:00 22.5 10 Oeste 20 Oeste 0 -- -- 54
2018-05-10 12:00:00 21.4 6 Noroeste 13 Oeste 0 -- -- 56
2018-05-10 11:00:00 20.1 5 Sudoeste 10 Oeste 0 -- -- 60
2018-05-10 10:00:00 19.4 3 Sudoeste 13 Nordeste 0 -- -- 62
2018-05-10 09:00:00 18.5 4 Nordeste 12 Este 0 -- -- 64
2018-05-10 08:00:00 17.6 0 Calma 8 Sudeste 0 -- -- 67
2018-05-10 07:00:00 17.6 0 Calma 3 Sur 0 -- -- 70
2018-05-10 06:00:00 17.7 0 Calma 5 Nordeste 0 -- -- 70
2018-05-10 05:00:00 17.9 3 Norte 9 Nordeste 0 -- -- 67
2018-05-10 04:00:00 17.3 0 Calma 4 Norte 0 -- -- 74
2018-05-10 03:00:00 17 0 Calma 3 Norte 0 -- -- 74
2018-05-10 02:00:00 17 2 Nordeste 6 Sur 0 -- -- 73
2018-05-10 01:00:00 17.7 0 Calma 4 Oeste 0 -- -- 73
2018-05-10 00:00:00 17.8 3 Norte 9 Nordeste 0 -- -- 74
2018-05-09 23:00:00 17.7 5 Norte 9 Norte 0 -- -- 73
2018-05-09 22:00:00 18.1 4 Norte 9 Noroeste 0 -- -- 73
2018-05-09 21:00:00 19.1 0 Calma 8 Oeste 0 -- -- 64
2018-05-09 20:00:00 20.2 4 Oeste 14 Sudoeste 0 -- -- 63
2018-05-09 19:00:00 21 9 Sudoeste 16 Oeste 0 -- -- 60
2018-05-09 18:00:00 22 9 Sudoeste 19 Oeste 0 -- -- 56
2018-05-09 17:00:00 22.1 9 Oeste 17 Oeste 0 -- -- 58
2018-05-09 16:00:00 22.3 9 Oeste 21 Sudoeste 0 -- -- 56
2018-05-09 15:00:00 22.3 12 Oeste 23 Oeste 0 -- -- 55
2018-05-09 14:00:00 21.7 10 Oeste 22 Oeste 0 -- -- 57
2018-05-09 13:00:00 21.3 7 Oeste 14 Oeste 0 -- -- 58
2018-05-09 12:00:00 22.2 7 Oeste 19 Sudoeste 0 -- -- 53
2018-05-09 11:00:00 22.2 6 Sudoeste 15 Oeste 0 -- -- 52
2018-05-09 10:00:00 20.6 4 Oeste 10 Sudoeste 0 -- -- 59
2018-05-09 09:00:00 18.3 0 Calma 5 Sudoeste 0 -- -- 69
2018-05-09 08:00:00 17.8 2 Oeste 5 Norte 0 -- -- 72
2018-05-09 07:00:00 18.1 4 Noroeste 13 Oeste 0 -- -- 74
2018-05-09 06:00:00 18.1 2 Noroeste 8 Noroeste 0 -- -- 70
2018-05-09 05:00:00 18.1 0 Calma 8 Nordeste 0 -- -- 70
2018-05-09 04:00:00 18 2 Este 6 Este 0 -- -- 71
2018-05-09 03:00:00 18.1 2 Norte 4 Norte 0 -- -- 71
2018-05-09 02:00:00 18.4 0 Calma 4 Sudoeste 0 -- -- 71
2018-05-09 01:00:00 18.5 2 Oeste 5 Oeste 0 -- -- 71
2018-05-09 00:00:00 18.6 0 Calma 5 Oeste 0 -- -- 69
2018-05-08 23:00:00 18.6 0 Calma 5 Oeste 0 -- -- 67
2018-05-08 22:00:00 18.7 4 Oeste 9 Sudoeste 0 -- -- 67
2018-05-08 21:00:00 19 5 Sudoeste 10 Sudoeste 0 -- -- 66
2018-05-08 20:00:00 19.5 4 Sudoeste 15 Oeste 0 -- -- 63
2018-05-08 19:00:00 20.1 11 Sudoeste 18 Oeste 0 -- -- 62
2018-05-08 18:00:00 22.4 11 Sudoeste 23 Sudoeste 0 -- -- 55
2018-05-08 17:00:00 23.6 12 Sudoeste 25 Oeste 0 -- -- 51
2018-05-08 16:00:00 23.6 10 Sudoeste 23 Sudoeste 0 -- -- 46
2018-05-08 15:00:00 22.4 9 Sudoeste 19 Sudoeste 0 -- -- 51
2018-05-08 14:00:00 21.7 8 Sudoeste 17 Sudoeste 0 -- -- 56
2018-05-08 13:00:00 21.5 7 Oeste 14 Oeste 0 -- -- 57
2018-05-08 12:00:00 20.9 5 Oeste 10 Oeste 0 -- -- 58
2018-05-08 11:00:00 20.3 6 Sudoeste 14 Sudoeste 0 -- -- 58
2018-05-08 10:00:00 20.5 5 Oeste 10 Sudoeste 0 -- -- 59
2018-05-08 09:00:00 18.5 3 Noroeste 5 Norte 0 -- -- 66
2018-05-08 08:00:00 17 3 Este 5 Nordeste 0 -- -- 68
2018-05-08 07:00:00 16.6 0 Calma 4 Nordeste 0 -- -- 66
2018-05-08 06:00:00 17 3 Este 4 Este 0 -- -- 66
2018-05-08 05:00:00 16.8 0 Calma 2 Sudeste 0 -- -- 68
2018-05-08 04:00:00 16.9 0 Calma 4 Nordeste 0 -- -- 70
2018-05-08 03:00:00 17.2 0 Calma 5 Nordeste 0 -- -- 70
2018-05-08 02:00:00 17.2 0 Calma 2 Norte 0 -- -- 70
2018-05-08 01:00:00 17.5 0 Calma 3 Norte 0 -- -- 69
2018-05-08 00:00:00 17.6 2 Nordeste 3 Nordeste 0 -- -- 68
2018-05-07 23:00:00 17.7 0 Calma 5 Oeste 0 -- -- 67
2018-05-07 22:00:00 18.1 3 Oeste 6 Sudoeste 0 -- -- 68
2018-05-07 21:00:00 18.6 2 Noroeste 7 Noroeste 0 -- -- 60
2018-05-07 20:00:00 19 3 Oeste 9 Nordeste 0 -- -- 56
2018-05-07 19:00:00 19.3 4 Sudoeste 10 Sudoeste 0 -- -- 57
2018-05-07 18:00:00 19.2 3 Nordeste 12 Este 0 -- -- 58
2018-05-07 17:00:00 18.9 3 Norte 14 Nordeste 0 -- -- 60
2018-05-07 16:00:00 18.5 5 Oeste 25 Sudoeste 0 -- -- 66
2018-05-07 15:00:00 19.2 11 Sudoeste 21 Sudoeste 0 -- -- 64
2018-05-07 14:00:00 19.9 5 Noroeste 17 Este 0 -- -- 59
2018-05-07 13:00:00 19.7 8 Sudoeste 13 Sudoeste 0 -- -- 59
2018-05-07 12:00:00 20.5 5 Oeste 16 Sur 0 -- -- 54
2018-05-07 11:00:00 20.4 4 Oeste 12 Sudoeste 0 -- -- 56
2018-05-07 10:00:00 18.5 0 Calma 6 Nordeste 0 -- -- 66
2018-05-07 09:00:00 16.2 3 Este 10 Nordeste 0 -- -- 69
2018-05-07 08:00:00 15.4 5 Este 12 Nordeste 0 -- -- 63
2018-05-07 07:00:00 15.7 7 Este 12 Este 0 -- -- 66
2018-05-07 06:00:00 15.5 3 Este 9 Este 0 -- -- 73
2018-05-07 05:00:00 15.6 3 Este 6 Este 0 -- -- 72
2018-05-07 04:00:00 15.4 0 Calma 12 Nordeste 0 -- -- 66
2018-05-07 03:00:00 15.9 7 Este 10 Este 0 -- -- 65
2018-05-07 02:00:00 16.4 5 Nordeste 17 Nordeste 0 -- -- 63
2018-05-07 01:00:00 16.4 4 Norte 15 Nordeste 0 -- -- 63
2018-05-07 00:00:00 17.1 10 Nordeste 17 Nordeste 0 -- -- 65
2018-05-06 23:00:00 16.6 2 Norte 10 Nordeste 0 -- -- 68
2018-05-06 22:00:00 17.6 5 Nordeste 13 Nordeste 0 -- -- 66
2018-05-06 21:00:00 18.1 7 Oeste 24 Oeste 0 -- -- 64
2018-05-06 20:00:00 19.4 8 Oeste 28 Noroeste 0 -- -- 61
2018-05-06 19:00:00 20.5 9 Oeste 23 Oeste 0 -- -- 57
2018-05-06 18:00:00 20.7 13 Oeste 26 Oeste 0 -- -- 56
2018-05-06 17:00:00 20.6 11 Oeste 23 Oeste 0 -- -- 53
2018-05-06 16:00:00 20.9 6 Noroeste 26 Sudoeste 0 -- -- 50
2018-05-06 15:00:00 20.8 12 Oeste 27 Noroeste 0 -- -- 53
2018-05-06 14:00:00 21.6 11 Oeste 23 Oeste 0 -- -- 57
2018-05-06 13:00:00 21.7 11 Oeste 27 Noroeste 0 -- -- 54
2018-05-06 12:00:00 21.1 15 Oeste 33 Noroeste 0 -- -- 58
2018-05-06 11:00:00 20.1 13 Oeste 28 Noroeste 0 -- -- 58
2018-05-06 10:00:00 19.6 10 Oeste 20 Oeste 0 -- -- 58
2018-05-06 09:00:00 17.4 4 Oeste 32 Norte 0 -- -- 58
2018-05-06 08:00:00 15.5 7 Sudoeste 24 Oeste 0 -- -- 74
2018-05-06 07:00:00 15.5 5 Este 8 Este 0 -- -- 66
2018-05-06 06:00:00 15.1 4 Este 5 Este 0 -- -- 69
2018-05-06 05:00:00 14.8 0 Calma 2 Nordeste 0 -- -- 71
2018-05-06 04:00:00 15.2 0 Calma 8 Nordeste 0 -- -- 68
2018-05-06 03:00:00 15.9 3 Nordeste 8 Nordeste 0 -- -- 67
2018-05-06 02:00:00 16.6 3 Nordeste 20 Nordeste 0 -- -- 65
2018-05-06 01:00:00 16.8 9 Nordeste 16 Nordeste 0 -- -- 68
2018-05-06 00:00:00 17 8 Nordeste 17 Nordeste 0 -- -- 67
2018-05-05 23:00:00 17.2 6 Nordeste 15 Este 0 -- -- 66
2018-05-05 22:00:00 17.5 8 Nordeste 21 Nordeste 0 -- -- 66
2018-05-05 21:00:00 17.8 7 Este 15 Este 0 -- -- 63
2018-05-05 20:00:00 18.9 5 Norte 19 Norte 0 -- -- 57
2018-05-05 19:00:00 20.8 5 Sudoeste 17 Sur 0 -- -- 52
2018-05-05 18:00:00 21.5 9 Oeste 19 Oeste 0 -- -- 50
2018-05-05 17:00:00 20.8 8 Oeste 19 Oeste 0 -- -- 51
2018-05-05 16:00:00 22.3 12 Sudoeste 22 Sudoeste 0 -- -- 47
2018-05-05 15:00:00 22.7 12 Sudoeste 25 Sudoeste 0 -- -- 45
2018-05-05 14:00:00 21.3 10 Sudoeste 24 Sudoeste 0 -- -- 50
2018-05-05 13:00:00 21.5 12 Oeste 28 Sudoeste 0 -- -- 51
2018-05-05 12:00:00 21.1 9 Sudoeste 23 Oeste 0 -- -- 53
2018-05-05 11:00:00 20.2 8 Sudoeste 16 Sudoeste 0 -- -- 56
2018-05-05 10:00:00 19 4 Oeste 10 Oeste 0 -- -- 60
2018-05-05 09:00:00 17.5 0 Calma 5 Sudeste 0 -- -- 66
2018-05-05 08:00:00 16.9 4 Nordeste 9 Norte 0 -- -- 66
2018-05-05 07:00:00 16.4 4 Sur 9 Sur 0 -- -- 69
2018-05-05 06:00:00 16.4 2 Sur 8 Sudeste 0 -- -- 70
2018-05-05 05:00:00 17 5 Sudeste 9 Norte 0 -- -- 69
2018-05-05 04:00:00 17.1 3 Oeste 9 Sur 0 -- -- 70
2018-05-05 03:00:00 17.2 2 Este 12 Nordeste 0 -- -- 69
2018-05-05 02:00:00 17.2 5 Sur 10 Sudeste 0 -- -- 69
2018-05-05 01:00:00 17.4 2 Norte 4 Norte 0 -- -- 67
2018-05-05 00:00:00 17.6 0 Calma 4 Norte 0 -- -- 67
2018-05-04 23:00:00 17.6 0 Calma 3 Norte 0 -- -- 66
2018-05-04 22:00:00 17.8 0 Calma 9 Oeste 0 -- -- 66
2018-05-04 21:00:00 19.1 2 Norte 12 Oeste 0 -- -- 61
2018-05-04 20:00:00 20.1 7 Oeste 18 Sudoeste 0 -- -- 59
2018-05-04 19:00:00 23 8 Oeste 20 Oeste 0 -- -- 48
2018-05-04 18:00:00 20.6 6 Oeste 18 Oeste 0 -- -- 58
2018-05-04 17:00:00 21.4 9 Oeste 24 Oeste 0 -- -- 55
2018-05-04 16:00:00 23.5 9 Oeste 28 Sudoeste 0 -- -- 48
2018-05-04 15:00:00 22.9 12 Oeste 24 Oeste 0 -- -- 48
2018-05-04 14:00:00 21.6 11 Oeste 21 Sudoeste 0 -- -- 56
2018-05-04 13:00:00 21.7 9 Oeste 23 Oeste 0 -- -- 52
2018-05-04 12:00:00 20.2 9 Oeste 19 Oeste 0 -- -- 57
2018-05-04 11:00:00 19.5 6 Noroeste 15 Oeste 0 -- -- 58
2018-05-04 10:00:00 20.2 5 Sudoeste 10 Sudoeste 0 -- -- 56
2018-05-04 09:00:00 16.6 3 Nordeste 4 Nordeste 0 -- -- 71
2018-05-04 08:00:00 16.1 0 Calma 2 Nordeste 0 -- -- 75
2018-05-04 07:00:00 16.2 0 Calma 5 Nordeste 0 -- -- 75
2018-05-04 06:00:00 16.2 0 Calma 4 Norte 0 -- -- 69
2018-05-04 05:00:00 17 0 Calma 11 Nordeste 0 -- -- 62
2018-05-04 04:00:00 17.8 6 Nordeste 15 Nordeste 0 -- -- 61
2018-05-04 03:00:00 17.7 0 Calma 8 Nordeste 0 -- -- 68
2018-05-04 02:00:00 17.5 2 Sudeste 5 Sur 0 -- -- 70
2018-05-04 01:00:00 17.4 0 Calma 3 Este 0 -- -- 71
2018-05-04 00:00:00 17.2 0 Calma 3 Nordeste 0 -- -- 72
2018-05-03 23:00:00 17.2 0 Calma 2 Sudoeste 0 -- -- 74
2018-05-03 22:00:00 17.7 0 Calma 3 Noroeste 0 -- -- 73
2018-05-03 21:00:00 18.5 3 Sudoeste 9 Noroeste 0 -- -- 69
2018-05-03 20:00:00 19.6 5 Oeste 15 Oeste 0 -- -- 66
2018-05-03 19:00:00 20.5 8 Noroeste 17 Oeste 0 -- -- 62
2018-05-03 18:00:00 20.5 8 Sudoeste 15 Sudoeste 0 -- -- 60
2018-05-03 17:00:00 20.1 3 Este 12 Sudeste 0 -- -- 57
2018-05-03 16:00:00 19.5 4 Nordeste 11 Sudoeste 0 -- -- 62
2018-05-03 15:00:00 19.8 5 Oeste 17 Sudoeste 0 -- -- 63
2018-05-03 14:00:00 20.4 6 Sudoeste 16 Sudoeste 0 -- -- 64
2018-05-03 13:00:00 20.4 7 Sudoeste 15 Sudoeste 0 -- -- 60
2018-05-03 12:00:00 20.6 4 Sudoeste 13 Sudoeste 0 -- -- 56
2018-05-03 11:00:00 20.6 6 Noroeste 13 Oeste 0 -- -- 57
2018-05-03 10:00:00 20 3 Norte 6 Norte 0 -- -- 58
2018-05-03 09:00:00 17.5 0 Calma 4 Noroeste 0 -- -- 67
2018-05-03 08:00:00 16.8 0 Calma 15 Norte 0 -- -- 63
2018-05-03 07:00:00 17.1 6 Nordeste 17 Nordeste 0 -- -- 67
2018-05-03 06:00:00 17.1 5 Este 18 Este 0 -- -- 70
2018-05-03 05:00:00 17 4 Nordeste 15 Sudeste 0 -- -- 71
2018-05-03 04:00:00 16.5 3 Sudeste 6 Sudeste 0 -- -- 76
2018-05-03 03:00:00 16.3 2 Sur 8 Norte 0 -- -- 75
2018-05-03 02:00:00 16.6 3 Este 9 Este 0 -- -- 72
2018-05-03 01:00:00 16.8 3 Sur 13 Nordeste 0 -- -- 72
2018-05-03 00:00:00 17.5 6 Nordeste 12 Sudoeste 0 -- -- 75
2018-05-02 23:00:00 17.5 3 Norte 11 Oeste 0 -- -- 76
2018-05-02 22:00:00 17.9 4 Oeste 17 Este 0 -- -- 70
2018-05-02 21:00:00 18.1 6 Sudoeste 28 Oeste 0 -- -- 71
2018-05-02 20:00:00 19.6 12 Oeste 34 Oeste 0 -- -- 67
2018-05-02 19:00:00 20 15 Oeste 32 Noroeste 0 -- -- 68
2018-05-02 18:00:00 21.7 15 Oeste 30 Oeste 0 -- -- 62
2018-05-02 17:00:00 20.6 13 Oeste 27 Sudoeste 0 -- -- 66
2018-05-02 16:00:00 20.5 9 Oeste 21 Oeste 0 -- -- 65
2018-05-02 15:00:00 20.1 8 Oeste 18 Sudoeste 0 -- -- 67
2018-05-02 14:00:00 18.5 5 Sudoeste 17 Sudoeste 0 -- -- 70
2018-05-02 13:00:00 18.8 11 Sudoeste 20 Oeste 0 -- -- 67
2018-05-02 12:00:00 19.4 7 Sudoeste 17 Sudoeste 0 -- -- 64
2018-05-02 11:00:00 18.8 4 Oeste 16 Sudoeste 0 -- -- 63
2018-05-02 10:00:00 19.5 3 Norte 5 Nordeste 0 -- -- 60
2018-05-02 09:00:00 17.1 3 Nordeste 9 Nordeste 0 -- -- 69
2018-05-02 08:00:00 16.2 2 Norte 5 Norte 0 -- -- 71
2018-05-02 07:00:00 16.3 2 Nordeste 6 Nordeste 0 -- -- 70
2018-05-02 06:00:00 16.5 0 Calma 8 Sudeste 0 -- -- 69
2018-05-02 05:00:00 16 2 Sur 7 Sudeste 0 -- -- 72
2018-05-02 04:00:00 16.4 0 Calma 5 Sur 0 -- -- 69
2018-05-02 03:00:00 17.1 2 Noroeste 6 Sudeste 0 -- -- 67
2018-05-02 02:00:00 17.4 2 Norte 5 Nordeste 0 -- -- 70
2018-05-02 01:00:00 17.5 4 Noroeste 9 Norte 0 -- -- 68
2018-05-02 00:00:00 17.6 2 Noroeste 9 Sudoeste 0 -- -- 68
2018-05-01 23:00:00 17.7 5 Oeste 10 Noroeste 0 -- -- 67
2018-05-01 22:00:00 18.1 0 Calma 5 Sudoeste 0 -- -- 65
2018-05-01 21:00:00 18.4 4 Oeste 18 Sudoeste 0 -- -- 65
2018-05-01 20:00:00 19.5 9 Oeste 21 Sudoeste 0 -- -- 60
2018-05-01 19:00:00 20.7 11 Sudoeste 18 Sudoeste 0 -- -- 60
2018-05-01 18:00:00 20.2 6 Sudoeste 23 Sudoeste 0 -- -- 57
2018-05-01 17:00:00 20.2 7 Oeste 17 Oeste 0 -- -- 58
2018-05-01 16:00:00 20.3 8 Oeste 17 Oeste 0 -- -- 54
2018-05-01 15:00:00 19.9 8 Sudoeste 17 Sudoeste 0 -- -- 54
2018-05-01 14:00:00 20.6 10 Sudoeste 22 Oeste 0 -- -- 52
2018-05-01 13:00:00 21.6 8 Sudoeste 23 Sudoeste 0 -- -- 50
2018-05-01 12:00:00 20.7 7 Sudoeste 18 Sudoeste 0 -- -- 51
2018-05-01 11:00:00 19.3 7 Sudoeste 15 Sudoeste 0 -- -- 54
2018-05-01 10:00:00 19.1 4 Sudoeste 11 Sudoeste 0 -- -- 54
2018-05-01 09:00:00 15.9 3 Norte 5 Norte 0 -- -- 66
2018-05-01 08:00:00 14.1 0 Calma 5 Este 0 -- -- 70
2018-05-01 07:00:00 14.9 5 Nordeste 8 Nordeste 0 -- -- 69
2018-05-01 06:00:00 15.1 0 Calma 8 Norte 0 -- -- 64
2018-05-01 05:00:00 15.7 3 Norte 8 Oeste 0 -- -- 64
2018-05-01 04:00:00 16.2 3 Norte 16 Nordeste 0 -- -- 62
2018-05-01 03:00:00 16.4 5 Nordeste 11 Norte 0 -- -- 62
2018-05-01 02:00:00 15.9 0 Calma 4 Norte 0 -- -- 62
2018-05-01 01:00:00 16.3 0 Calma 11 Noroeste 0 -- -- 61
2018-05-01 00:00:00 16.9 0 Calma 6 Noroeste 0 -- -- 58
2018-04-30 23:00:00 17.2 0 Calma 7 Este 0 -- -- 57
2018-04-30 22:00:00 17.5 2 Norte 12 Este 0 -- -- 55
2018-04-30 21:00:00 18 3 Oeste 14 Oeste 0 -- -- 54
2018-04-30 20:00:00 20.2 9 Oeste 24 Oeste 0 -- -- 49
2018-04-30 19:00:00 20.1 13 Sudoeste 28 Sudoeste 0 -- -- 50
2018-04-30 18:00:00 22 9 Oeste 20 Sudoeste 0 -- -- 44
2018-04-30 17:00:00 19.4 10 Oeste 21 Oeste 0 -- -- 50
2018-04-30 16:00:00 19.9 8 Sudoeste 21 Sudoeste 0 -- -- 47
2018-04-30 15:00:00 20.7 10 Oeste 22 Oeste 0 -- -- 43
2018-04-30 14:00:00 19.6 8 Oeste 18 Oeste 0 -- -- 49
2018-04-30 13:00:00 19.6 8 Oeste 18 Sudoeste 0 -- -- 49
2018-04-30 12:00:00 18.9 7 Oeste 15 Sudoeste 0 -- -- 48
2018-04-30 11:00:00 -- -- -- -- -- -- -- -- --
2018-04-30 10:00:00 17.8 3 Sudoeste 6 Sudoeste 0 -- -- 53
2018-04-30 09:00:00 16.6 0 Calma 5 Nordeste 0 -- -- 57
2018-04-30 08:00:00 15.8 0 Calma 4 Norte 0 -- -- 61
2018-04-30 07:00:00 15.9 0 Calma 8 Este 0 -- -- 59
2018-04-30 06:00:00 15.8 0 Calma 7 Nordeste 0 -- -- 60
2018-04-30 05:00:00 15.8 3 Sudeste 4 Sudeste 0 -- -- 58
2018-04-30 04:00:00 15.3 0 Calma 6 Sudeste 0 -- -- 63
2018-04-30 03:00:00 15.2 0 Calma 6 Norte 0 -- -- 63
2018-04-30 02:00:00 14.8 0 Calma 3 Nordeste 0 -- -- 62
2018-04-30 01:00:00 15.9 0 Calma 10 Nordeste 0 -- -- 59
2018-04-30 00:00:00 16.6 5 Nordeste 14 Norte 0 -- -- 57
2018-04-29 23:00:00 17 5 Nordeste 15 Este 0 -- -- 57
2018-04-29 22:00:00 17.3 0 Calma 11 Sudoeste 0 -- -- 58
2018-04-29 21:00:00 17.6 5 Sudoeste 14 Sudoeste 0 -- -- 58
2018-04-29 20:00:00 18.5 6 Oeste 17 Sudoeste 0 -- -- 55
2018-04-29 19:00:00 21.2 10 Oeste 23 Sudoeste 0 -- -- 48
2018-04-29 18:00:00 21.8 8 Oeste 21 Sur 0 -- -- 46
2018-04-29 17:00:00 21.8 12 Sudoeste 25 Oeste 0 -- -- 47
2018-04-29 16:00:00 22.5 13 Sudoeste 26 Oeste 0 -- -- 46
2018-04-29 15:00:00 22.4 13 Oeste 26 Sudoeste 0 -- -- 45
2018-04-29 14:00:00 21.5 12 Oeste 24 Sudoeste 0 -- -- 46
2018-04-29 13:00:00 22 13 Sudoeste 22 Sudoeste 0 -- -- 48
2018-04-29 12:00:00 20.4 8 Oeste 17 Oeste 0 -- -- 51
2018-04-29 11:00:00 21.4 8 Noroeste 16 Noroeste 0 -- -- 49
2018-04-29 10:00:00 19.8 9 Sudoeste 24 Sudoeste 0 -- -- 48
2018-04-29 09:00:00 17.9 2 Noroeste 6 Oeste 0 -- -- 61
2018-04-29 08:00:00 17.1 0 Calma 7 Sudeste 0 -- -- 63
2018-04-29 07:00:00 17.2 0 Calma 9 Nordeste 0 -- -- 63
2018-04-29 06:00:00 17.3 5 Nordeste 21 Nordeste 0 -- -- 62
2018-04-29 05:00:00 17.5 7 Nordeste 14 Este 0 -- -- 61
2018-04-29 04:00:00 17.9 3 Noroeste 10 Oeste 0 -- -- 71
2018-04-29 03:00:00 18.1 4 Oeste 9 Norte 0 -- -- 70
2018-04-29 02:00:00 18 2 Este 8 Este 0 -- -- 70
2018-04-29 01:00:00 18.3 0 Calma 12 Nordeste 0 -- -- 71
2018-04-29 00:00:00 18.2 0 Calma 8 Sudoeste 0 -- -- 70
2018-04-28 23:00:00 18.4 3 Oeste 10 Sudoeste 0 -- -- 70
2018-04-28 22:00:00 18.4 3 Sudoeste 10 Oeste 0 -- -- 68
2018-04-28 21:00:00 18.8 5 Oeste 12 Sudoeste 0 -- -- 68
2018-04-28 20:00:00 19.4 6 Noroeste 14 Oeste 0 -- -- 63
2018-04-28 19:00:00 20 7 Oeste 15 Sudoeste 0 -- -- 60
2018-04-28 18:00:00 20.8 6 Sudoeste 19 Sudoeste 0 -- -- 58
2018-04-28 17:00:00 22.8 11 Sudoeste 21 Sudoeste 0 -- -- 53
2018-04-28 16:00:00 22.1 10 Oeste 22 Oeste 0 -- -- 54
2018-04-28 15:00:00 22.5 9 Oeste 23 Oeste 0 -- -- 53
2018-04-28 14:00:00 23.2 10 Sudoeste 33 Sudoeste 0 -- -- 51
2018-04-28 13:00:00 22.5 9 Noroeste 25 Oeste 0 -- -- 54
2018-04-28 12:00:00 21.2 6 Noroeste 19 Sudoeste 0 -- -- 58
2018-04-28 11:00:00 18.9 8 Oeste 16 Oeste 0 -- -- 69
2018-04-28 10:00:00 18.5 5 Oeste 12 Oeste 0 -- -- 71
2018-04-28 09:00:00 16.3 0 Calma 7 Nordeste 0 -- -- 79
2018-04-28 08:00:00 16 5 Este 9 Este 0 -- -- 75
2018-04-28 07:00:00 16.2 5 Este 8 Este 0 -- -- 76
2018-04-28 06:00:00 16.1 0 Calma 4 Sur 0 -- -- 79
2018-04-28 05:00:00 16.5 0 Calma 6 Sudoeste 0 -- -- 79
2018-04-28 04:00:00 17.2 0 Calma 3 Sudoeste 0 -- -- 78
2018-04-28 03:00:00 17.5 0 Calma 5 Norte 0 -- -- 77
2018-04-28 02:00:00 17.3 2 Norte 8 Noroeste 0 -- -- 77
2018-04-28 01:00:00 16.8 3 Sudoeste 5 Sudoeste 0 -- -- 79
2018-04-28 00:00:00 16.8 0 Calma 4 Norte 0 -- -- 78
2018-04-27 23:00:00 16.7 0 Calma 0 Calma 0 -- -- 77
2018-04-27 22:00:00 17.1 0 Calma 5 Sudoeste 0 -- -- 73
2018-04-27 21:00:00 18.2 0 Calma 13 Sudoeste 0 -- -- 69
2018-04-27 20:00:00 20.3 5 Oeste 18 Sudoeste 0 -- -- 61
2018-04-27 19:00:00 21.3 6 Oeste 21 Sudoeste 0 -- -- 59
2018-04-27 18:00:00 21.9 12 Oeste 24 Oeste 0 -- -- 58
2018-04-27 17:00:00 21.3 8 Oeste 24 Sudoeste 0 -- -- 61
2018-04-27 16:00:00 20.5 6 Oeste 23 Sudoeste 0 -- -- 64
2018-04-27 15:00:00 22.6 10 Sudoeste 28 Sudoeste 0 -- -- 58
2018-04-27 14:00:00 21.9 12 Oeste 25 Oeste 0 -- -- 58
2018-04-27 13:00:00 21.8 10 Sudoeste 20 Sudoeste 0 -- -- 59
2018-04-27 12:00:00 21.1 7 Oeste 14 Oeste 0 -- -- 60
2018-04-27 11:00:00 20.6 8 Sudoeste 14 Sudoeste 0 -- -- 62
2018-04-27 10:00:00 19.1 6 Oeste 14 Oeste 0 -- -- 68
2018-04-27 09:00:00 17.6 5 Sudoeste 10 Sudoeste 0 -- -- 73
2018-04-27 08:00:00 17.3 6 Sudoeste 9 Sudoeste 0 -- -- 75
2018-04-27 07:00:00 17.3 5 Sudoeste 10 Sudoeste 0 -- -- 75
2018-04-27 06:00:00 17.5 3 Sudoeste 8 Sudoeste 0 -- -- 75
2018-04-27 05:00:00 17.7 4 Sudoeste 7 Sudoeste 0 -- -- 74
2018-04-27 04:00:00 17.8 2 Oeste 7 Oeste 0 -- -- 75
2018-04-27 03:00:00 18 6 Oeste 13 Oeste 0 -- -- 74
2018-04-27 02:00:00 18.1 5 Sudoeste 12 Sudoeste 0 -- -- 74
2018-04-27 01:00:00 18.3 6 Oeste 12 Noroeste 0 -- -- 73
2018-04-27 00:00:00 18.3 4 Oeste 14 Sudoeste 0 -- -- 75
2018-04-26 23:00:00 18.4 5 Sudoeste 12 Sudoeste 0 -- -- 75
2018-04-26 22:00:00 18.1 3 Oeste 11 Sudoeste 0 -- -- 75
2018-04-26 21:00:00 18.7 3 Oeste 14 Oeste 0 -- -- 72
2018-04-26 20:00:00 20.2 6 Oeste 17 Sudoeste 0 -- -- 67
2018-04-26 19:00:00 22.1 9 Sudoeste 20 Sudoeste 0 -- -- 59
2018-04-26 18:00:00 22.7 11 Sudoeste 20 Sudoeste 0 -- -- 56
2018-04-26 17:00:00 23 11 Oeste 22 Sudoeste 0 -- -- 56
2018-04-26 16:00:00 23.2 10 Sudoeste 24 Sur 0 -- -- 56
2018-04-26 15:00:00 22.8 12 Oeste 21 Oeste 0 -- -- 56
2018-04-26 14:00:00 22.5 9 Oeste 18 Sudoeste 0 -- -- 55
2018-04-26 13:00:00 21.7 6 Oeste 15 Sudoeste 0 -- -- 59
2018-04-26 12:00:00 21 6 Oeste 21 Sudoeste 0 -- -- 61
2018-04-26 11:00:00 21.1 7 Sudoeste 15 Sudoeste 0 -- -- 60
2018-04-26 10:00:00 19.8 6 Sudoeste 13 Sudoeste 0 -- -- 63
2018-04-26 09:00:00 18.4 4 Noroeste 9 Sudoeste 0 -- -- 70
2018-04-26 08:00:00 17.3 0 Calma 8 Sudoeste 0 -- -- 72
2018-04-26 07:00:00 17.3 3 Sudoeste 8 Sudoeste 0 -- -- 71
2018-04-26 06:00:00 17.5 2 Sudoeste 8 Sudoeste 0 -- -- 71
2018-04-26 05:00:00 17.6 5 Sudoeste 12 Sudoeste 0 -- -- 71
2018-04-26 04:00:00 17.7 4 Oeste 13 Sudoeste 0 -- -- 71
2018-04-26 03:00:00 18 5 Sudoeste 10 Sudoeste 0 -- -- 70
2018-04-26 02:00:00 18.2 5 Sudoeste 9 Sudoeste 0 -- -- 70
2018-04-26 01:00:00 18.4 6 Oeste 10 Noroeste 0 -- -- 71
2018-04-26 00:00:00 18.5 4 Oeste 11 Sudoeste 0 -- -- 71
2018-04-25 23:00:00 18.4 4 Oeste 10 Oeste 0 -- -- 72
2018-04-25 22:00:00 18.1 3 Oeste 6 Oeste 0 -- -- 72
2018-04-25 21:00:00 18.3 0 Calma 10 Oeste 0 -- -- 70
2018-04-25 20:00:00 20.1 5 Oeste 13 Oeste 0 -- -- 63
2018-04-25 19:00:00 21.4 9 Sudoeste 20 Sudoeste 0 -- -- 59
2018-04-25 18:00:00 22.6 8 Sudoeste 23 Sudoeste 0 -- -- 55
2018-04-25 17:00:00 22.9 13 Sudoeste 24 Sudoeste 0 -- -- 56
2018-04-25 16:00:00 23.6 14 Sudoeste 27 Sudoeste 0 -- -- 53
2018-04-25 15:00:00 22.9 9 Oeste 21 Oeste 0 -- -- 55
2018-04-25 14:00:00 22.8 10 Sudoeste 21 Sudoeste 0 -- -- 55
2018-04-25 13:00:00 22.9 9 Sudoeste 19 Sudoeste 0 -- -- 56
2018-04-25 12:00:00 21.8 7 Sudoeste 17 Sudoeste 0 -- -- 61
2018-04-25 11:00:00 21.3 6 Sudoeste 14 Oeste 0 -- -- 61
2018-04-25 10:00:00 20 3 Oeste 9 Oeste 0 -- -- 62
2018-04-25 09:00:00 16.5 0 Calma 12 Nordeste 0 -- -- 75
2018-04-25 08:00:00 16.4 8 Nordeste 16 Este 0 -- -- 72
2018-04-25 07:00:00 15.7 3 Norte 13 Nordeste 0 -- -- 77
2018-04-25 06:00:00 16.1 7 Nordeste 11 Nordeste 0 -- -- 82
2018-04-25 05:00:00 16.9 0 Calma 15 Noroeste 0 -- -- 80
2018-04-25 04:00:00 17.2 3 Noroeste 12 Noroeste 0 -- -- 82
2018-04-25 03:00:00 17.2 5 Oeste 12 Oeste 0 -- -- 83
2018-04-25 02:00:00 18 4 Noroeste 7 Norte 0 -- -- 71
2018-04-25 01:00:00 18.1 2 Nordeste 13 Nordeste 0 -- -- 73
2018-04-25 00:00:00 18 4 Nordeste 11 Este 0 -- -- 75
2018-04-24 23:00:00 18 3 Norte 13 Oeste 0 -- -- 76
2018-04-24 22:00:00 18.1 3 Sudoeste 11 Oeste 0 -- -- 75
2018-04-24 21:00:00 18.4 4 Sudoeste 12 Noroeste 0 -- -- 73
2018-04-24 20:00:00 19.8 6 Noroeste 13 Oeste 0 -- -- 65
2018-04-24 19:00:00 19.8 5 Oeste 18 Sudoeste 0 -- -- 66
2018-04-24 18:00:00 20 7 Oeste 20 Sudoeste 0 -- -- 66
2018-04-24 17:00:00 20.9 8 Sudoeste 19 Sudoeste 0 -- -- 63
2018-04-24 16:00:00 21.9 9 Sudoeste 18 Oeste 0 -- -- 58
2018-04-24 15:00:00 20.5 8 Sudoeste 18 Sudoeste 0 -- -- 64
2018-04-24 14:00:00 20.5 7 Oeste 18 Sudoeste 0 -- -- 63
2018-04-24 13:00:00 20.7 4 Oeste 16 Sudoeste 0 -- -- 59
2018-04-24 12:00:00 19.9 7 Oeste 19 Sudoeste 0 -- -- 63
2018-04-24 11:00:00 20.3 6 Sur 16 Sudoeste 0 -- -- 62
2018-04-24 10:00:00 19.9 4 Oeste 12 Sudoeste 0 -- -- 65
2018-04-24 09:00:00 16.7 0 Calma 6 Sudeste 0 -- -- 67
2018-04-24 08:00:00 16.7 3 Este 17 Nordeste 0 -- -- 66
2018-04-24 07:00:00 17.1 8 Nordeste 18 Nordeste 0 -- -- 63
2018-04-24 06:00:00 16.3 5 Nordeste 10 Nordeste 0 -- -- 66
2018-04-24 05:00:00 15.9 3 Este 6 Este 0 -- -- 73
2018-04-24 04:00:00 16.7 0 Calma 13 Nordeste 0 -- -- 75
2018-04-24 03:00:00 17.1 7 Nordeste 13 Nordeste 0 -- -- 73
2018-04-24 02:00:00 16.7 7 Nordeste 12 Nordeste 0 -- -- 66
2018-04-24 01:00:00 17.5 5 Este 20 Norte 0 -- -- 65
2018-04-24 00:00:00 17.4 9 Nordeste 19 Nordeste 0 -- -- 71
2018-04-23 23:00:00 17.4 3 Este 16 Nordeste 0 -- -- 73
2018-04-23 22:00:00 17.6 3 Norte 9 Sur 0 -- -- 71
2018-04-23 21:00:00 18.1 4 Sur 19 Nordeste 0 -- -- 71
2018-04-23 20:00:00 19.4 5 Sudoeste 14 Sur 0 -- -- 65
2018-04-23 19:00:00 19.3 5 Sur 23 Sur 0 -- -- 66
2018-04-23 18:00:00 20.4 9 Sudoeste 27 Sur 0 -- -- 59
2018-04-23 17:00:00 20.8 12 Este 27 Nordeste 0 -- -- 59
2018-04-23 16:00:00 21.1 8 Nordeste 19 Este 0 -- -- 58
2018-04-23 15:00:00 20.4 12 Nordeste 23 Nordeste 0 -- -- 63
2018-04-23 14:00:00 20.4 6 Oeste 20 Sudoeste 0 -- -- 63
2018-04-23 13:00:00 20 11 Oeste 24 Sudoeste 0 -- -- 66
2018-04-23 12:00:00 19.4 15 Oeste 25 Oeste 0 -- -- 68
2018-04-23 11:00:00 20.2 6 Noroeste 22 Noroeste 0 -- -- 66
2018-04-23 10:00:00 19 3 Norte 12 Este 0 -- -- 71
2018-04-23 09:00:00 17.2 5 Nordeste 14 Nordeste 0 -- -- 76
2018-04-23 08:00:00 16.5 3 Nordeste 5 Nordeste 0 -- -- 82
2018-04-23 07:00:00 16.3 2 Sur 4 Oeste 0 -- -- 84
2018-04-23 06:00:00 16.7 0 Calma 7 Norte 0 -- -- 82
2018-04-23 05:00:00 17.2 0 Calma 6 Oeste 0 -- -- 77
2018-04-23 04:00:00 17.2 2 Norte 7 Este 0 -- -- 78
2018-04-23 03:00:00 17.1 4 Noroeste 11 Nordeste 0 -- -- 81
2018-04-23 02:00:00 17.2 3 Sudoeste 8 Norte 0 -- -- 79
2018-04-23 01:00:00 17.5 3 Nordeste 10 Este 0 -- -- 79
2018-04-23 00:00:00 17.6 3 Nordeste 14 Sudeste 0 -- -- 76
2018-04-22 23:00:00 17.7 3 Sur 17 Norte 0 -- -- 74
2018-04-22 22:00:00 17.9 8 Nordeste 22 Norte 0 -- -- 72
2018-04-22 21:00:00 17.4 5 Noroeste 21 Sudoeste 0 -- -- 77
2018-04-22 20:00:00 19.4 3 Oeste 17 Sudeste 0 -- -- 62
2018-04-22 19:00:00 20.4 11 Nordeste 37 Sudeste -- -- -- 63
2018-04-22 18:00:00 21.3 8 Oeste 32 Oeste 0 -- -- 55
2018-04-22 17:00:00 23.3 14 Oeste 32 Oeste 0 -- -- 50
2018-04-22 16:00:00 21.2 12 Oeste 29 Oeste 0 -- -- 56
2018-04-22 15:00:00 20.9 9 Oeste 19 Oeste 0 -- -- 58
2018-04-22 14:00:00 21.6 5 Nordeste 23 Este 0 -- -- 55
2018-04-22 13:00:00 19.4 8 Oeste 21 Oeste 0 -- -- 62
2018-04-22 12:00:00 19.5 9 Oeste 21 Sudoeste 0 -- -- 63
2018-04-22 11:00:00 21.4 6 Sudoeste 17 Sudoeste 0 -- -- 50
2018-04-22 10:00:00 19.8 6 Sudoeste 13 Sudoeste 0 -- -- 57
2018-04-22 09:00:00 16.3 4 Este 7 Sudeste 0 -- -- 68
2018-04-22 08:00:00 15 2 Nordeste 14 Nordeste 0 -- -- 71
2018-04-22 07:00:00 15.2 3 Norte 11 Este 0 -- -- 74
2018-04-22 06:00:00 15.5 7 Este 11 Este 0 -- -- 62
2018-04-22 05:00:00 15.5 7 Nordeste 16 Nordeste 0 -- -- 66
2018-04-22 04:00:00 16.1 7 Nordeste 17 Norte 0 -- -- 68
2018-04-22 03:00:00 15.5 4 Este 9 Este 0 -- -- 58
2018-04-22 02:00:00 16.3 5 Este 8 Este 0 -- -- 55
2018-04-22 01:00:00 16.4 2 Nordeste 9 Nordeste 0 -- -- 54
2018-04-22 00:00:00 16.8 2 Este 15 Nordeste 0 -- -- 60